createdAt,value
2022-12-18T00:00:28.295Z,91.80
2022-12-18T00:02:58.477Z,92.00
2022-12-18T00:05:27.407Z,92.00
2022-12-18T00:07:56.134Z,92.00
2022-12-18T00:10:24.928Z,92.00
2022-12-18T00:12:53.747Z,92.00
2022-12-18T00:15:22.850Z,91.90
2022-12-18T00:17:51.696Z,91.70
2022-12-18T00:20:27.444Z,91.80
2022-12-18T00:22:56.536Z,91.90
2022-12-18T00:25:25.622Z,91.60
2022-12-18T00:27:54.539Z,91.50
2022-12-18T00:30:23.427Z,91.30
2022-12-18T00:32:52.278Z,91.10
2022-12-18T00:35:21.211Z,91.20
2022-12-18T00:37:49.945Z,91.30
2022-12-18T00:40:18.937Z,91.20
2022-12-18T00:43:02.959Z,91.10
2022-12-18T00:45:33.273Z,91.40
2022-12-18T00:48:02.106Z,91.20
2022-12-18T00:50:30.905Z,91.20
2022-12-18T00:52:59.869Z,91.30
2022-12-18T00:55:28.906Z,90.90
2022-12-18T00:57:57.741Z,91.00
2022-12-18T01:00:26.999Z,90.30
2022-12-18T01:02:55.943Z,90.60
2022-12-18T01:05:24.709Z,90.70
2022-12-18T01:07:53.560Z,90.30
2022-12-18T01:10:22.500Z,90.10
2022-12-18T01:12:51.735Z,90.50
2022-12-18T01:15:21.710Z,90.20
2022-12-18T01:17:50.549Z,90.00
2022-12-18T01:20:19.303Z,89.70
2022-12-18T01:22:48.749Z,88.40
2022-12-18T01:25:17.746Z,88.70
2022-12-18T01:27:46.625Z,88.60
2022-12-18T01:30:15.687Z,89.40
2022-12-18T01:32:44.493Z,88.30
2022-12-18T01:35:13.280Z,88.50
2022-12-18T01:37:42.170Z,86.10
2022-12-18T01:40:11.720Z,87.10
2022-12-18T01:42:40.478Z,86.60
2022-12-18T01:45:28.066Z,86.60
2022-12-18T01:47:58.876Z,86.50
2022-12-18T01:50:34.122Z,87.70
2022-12-18T01:53:10.198Z,86.50
2022-12-18T01:55:45.346Z,83.90
2022-12-18T01:58:14.483Z,82.40
2022-12-18T02:00:43.451Z,85.30
2022-12-18T02:03:14.072Z,85.00
2022-12-18T02:06:03.194Z,84.40
2022-12-18T02:08:55.700Z,84.00
2022-12-18T02:11:26.372Z,80.40
2022-12-18T02:14:19.481Z,82.40
2022-12-18T02:16:49.310Z,81.50
2022-12-18T02:19:32.091Z,80.10
2022-12-18T02:22:29.577Z,81.00
2022-12-18T02:25:01.316Z,80.40
2022-12-18T02:27:34.735Z,80.50
2022-12-18T02:30:06.195Z,79.50
2022-12-18T02:32:40.565Z,81.20
2022-12-18T02:35:15.946Z,78.50
2022-12-18T02:37:47.605Z,79.00
2022-12-18T02:40:18.015Z,78.80
2022-12-18T02:42:46.831Z,77.20
2022-12-18T02:45:16.149Z,78.80
2022-12-18T02:47:48.945Z,77.80
2022-12-18T02:50:25.799Z,77.90
2022-12-18T02:53:00.130Z,77.30
2022-12-18T02:55:39.178Z,76.90
2022-12-18T02:58:18.923Z,79.00
2022-12-18T03:01:05.509Z,75.80
2022-12-18T03:03:44.334Z,74.80
2022-12-18T03:06:19.141Z,75.60
2022-12-18T03:08:53.333Z,75.60
2022-12-18T03:11:41.925Z,75.90
2022-12-18T03:14:11.704Z,75.30
2022-12-18T03:16:42.387Z,75.30
2022-12-18T03:19:18.124Z,74.60
2022-12-18T03:21:51.256Z,74.00
2022-12-18T03:24:21.917Z,75.80
2022-12-18T03:26:54.965Z,74.60
2022-12-18T03:29:27.026Z,74.30
2022-12-18T03:32:02.742Z,74.40
2022-12-18T03:34:37.938Z,73.70
2022-12-18T03:37:08.498Z,74.30
2022-12-18T03:39:37.957Z,73.60
2022-12-18T03:42:13.114Z,74.20
2022-12-18T03:45:06.569Z,74.30
2022-12-18T03:47:45.241Z,75.80
2022-12-18T03:50:24.521Z,75.90
2022-12-18T03:52:55.306Z,72.70
2022-12-18T03:55:25.446Z,72.70
2022-12-18T03:57:56.311Z,73.50
2022-12-18T04:00:25.234Z,75.80
2022-12-18T04:02:56.844Z,72.90
2022-12-18T04:05:27.382Z,73.90
2022-12-18T04:07:57.279Z,74.40
2022-12-18T04:10:26.138Z,74.00
2022-12-18T04:12:59.293Z,71.30
2022-12-18T04:15:28.218Z,74.50
2022-12-18T04:17:57.107Z,71.70
2022-12-18T04:20:26.015Z,71.80
2022-12-18T04:22:54.786Z,74.10
2022-12-18T04:25:23.566Z,71.90
2022-12-18T04:27:52.434Z,72.00
2022-12-18T04:30:21.211Z,70.50
2022-12-18T04:32:52.326Z,70.40
2022-12-18T04:35:21.632Z,70.60
2022-12-18T04:37:50.503Z,70.50
2022-12-18T04:40:19.396Z,73.30
2022-12-18T04:42:48.760Z,74.40
2022-12-18T04:45:17.618Z,73.70
2022-12-18T04:47:46.728Z,69.80
2022-12-18T04:50:15.544Z,70.80
2022-12-18T04:52:44.253Z,71.50
2022-12-18T04:55:13.031Z,72.80
2022-12-18T04:57:41.930Z,70.30
2022-12-18T05:00:11.433Z,70.50
2022-12-18T05:02:40.437Z,70.70
2022-12-18T05:05:09.887Z,70.70
2022-12-18T05:07:39.393Z,71.10
2022-12-18T05:10:11.931Z,72.10
2022-12-18T05:13:01.204Z,70.00
2022-12-18T05:15:32.891Z,71.30
2022-12-18T05:18:02.674Z,71.00
2022-12-18T05:20:31.519Z,70.80
2022-12-18T05:23:00.425Z,69.90
2022-12-18T05:25:29.950Z,69.50
2022-12-18T05:27:58.864Z,70.40
2022-12-18T05:30:28.746Z,70.80
2022-12-18T05:32:57.706Z,71.20
2022-12-18T05:35:27.224Z,72.10
2022-12-18T05:37:56.229Z,70.80
2022-12-18T05:40:24.951Z,71.30
2022-12-18T05:42:53.737Z,72.40
2022-12-18T05:45:22.622Z,70.60
2022-12-18T05:47:51.427Z,71.50
2022-12-18T05:50:20.261Z,69.80
2022-12-18T05:52:50.153Z,70.60
2022-12-18T05:55:19.101Z,70.50
2022-12-18T05:57:47.933Z,70.20
2022-12-18T06:00:17.816Z,70.60
2022-12-18T06:02:49.913Z,72.00
2022-12-18T06:05:18.821Z,69.40
2022-12-18T06:07:47.596Z,69.50
2022-12-18T06:10:16.418Z,68.70
2022-12-18T06:12:45.651Z,69.00
2022-12-18T06:15:14.755Z,70.20
2022-12-18T06:17:45.020Z,70.20
2022-12-18T06:20:13.873Z,68.90
2022-12-18T06:22:42.768Z,68.40
2022-12-18T06:25:11.979Z,68.10
2022-12-18T06:27:40.785Z,67.50
2022-12-18T06:30:11.952Z,67.80
2022-12-18T06:32:41.558Z,68.90
2022-12-18T06:35:10.635Z,68.40
2022-12-18T06:37:39.428Z,67.80
2022-12-18T06:40:09.432Z,67.60
2022-12-18T06:42:38.176Z,69.50
2022-12-18T06:45:10.397Z,68.80
2022-12-18T06:47:39.193Z,68.20
2022-12-18T06:50:08.689Z,68.00
2022-12-18T06:52:37.579Z,67.50
2022-12-18T06:55:07.044Z,66.90
2022-12-18T06:57:35.893Z,68.70
2022-12-18T07:00:05.721Z,67.10
2022-12-18T07:02:34.913Z,68.70
2022-12-18T07:05:10.289Z,68.80
2022-12-18T07:07:39.558Z,67.50
2022-12-18T07:10:08.580Z,68.20
2022-12-18T07:12:37.694Z,70.50
2022-12-18T07:15:07.286Z,67.70
2022-12-18T07:17:36.094Z,68.90
2022-12-18T07:20:05.628Z,67.60
2022-12-18T07:22:34.418Z,66.90
2022-12-18T07:25:03.178Z,68.10
2022-12-18T07:27:31.985Z,68.90
2022-12-18T07:30:00.725Z,69.80
2022-12-18T07:32:29.472Z,67.40
2022-12-18T07:34:58.258Z,67.80
2022-12-18T07:37:27.037Z,68.70
2022-12-18T07:39:55.758Z,68.20
2022-12-18T07:42:39.822Z,68.20
2022-12-18T07:45:09.059Z,69.60
2022-12-18T07:47:38.609Z,68.00
2022-12-18T07:50:08.422Z,66.70
2022-12-18T07:52:37.193Z,66.70
2022-12-18T07:55:06.453Z,67.20
2022-12-18T07:57:55.187Z,67.10
2022-12-18T08:00:25.166Z,68.60
2022-12-18T08:02:54.152Z,68.90
2022-12-18T08:05:23.266Z,68.90
2022-12-18T08:07:52.301Z,68.30
2022-12-18T08:10:22.285Z,67.70
2022-12-18T08:12:52.970Z,68.80
2022-12-18T08:15:21.728Z,68.30
2022-12-18T08:17:50.630Z,68.10
2022-12-18T08:20:20.402Z,68.50
2022-12-18T08:22:49.378Z,69.30
2022-12-18T08:25:18.344Z,69.20
2022-12-18T08:27:47.978Z,67.90
2022-12-18T08:30:16.957Z,68.50
2022-12-18T08:32:45.809Z,67.70
2022-12-18T08:35:17.565Z,68.40
2022-12-18T08:37:47.589Z,68.40
2022-12-18T08:40:16.635Z,67.60
2022-12-18T08:43:05.020Z,68.10
2022-12-18T08:45:36.897Z,67.90
2022-12-18T08:48:05.915Z,68.10
2022-12-18T08:50:34.757Z,68.30
2022-12-18T08:53:04.013Z,68.50
2022-12-18T08:55:32.880Z,68.90
2022-12-18T08:58:01.631Z,68.90
2022-12-18T09:00:30.446Z,69.90
2022-12-18T09:02:59.489Z,68.50
2022-12-18T09:05:28.440Z,68.70
2022-12-18T09:07:57.308Z,68.70
2022-12-18T09:10:26.167Z,68.60
2022-12-18T09:12:54.951Z,69.00
2022-12-18T09:15:23.964Z,70.20
2022-12-18T09:17:54.974Z,69.10
2022-12-18T09:20:23.877Z,69.40
2022-12-18T09:22:52.618Z,69.20
2022-12-18T09:25:21.389Z,69.60
2022-12-18T09:27:50.620Z,70.00
2022-12-18T09:30:19.595Z,69.80
2022-12-18T09:32:48.406Z,71.10
2022-12-18T09:35:17.240Z,70.40
2022-12-18T09:37:45.936Z,70.50
2022-12-18T09:40:25.316Z,70.10
2022-12-18T09:43:01.740Z,69.70
2022-12-18T09:45:32.799Z,70.10
2022-12-18T09:48:01.545Z,70.70
2022-12-18T09:50:39.213Z,70.50
2022-12-18T09:53:15.480Z,71.20
2022-12-18T09:55:47.285Z,70.70
2022-12-18T09:58:39.981Z,70.70
2022-12-18T10:01:26.331Z,70.80
2022-12-18T10:03:57.375Z,70.90
2022-12-18T10:06:36.618Z,70.90
2022-12-18T10:09:21.825Z,71.70
2022-12-18T10:12:08.118Z,72.00
2022-12-18T10:14:45.197Z,71.90
2022-12-18T10:17:31.527Z,72.40
2022-12-18T10:20:15.609Z,72.40
2022-12-18T10:23:05.429Z,72.60
2022-12-18T10:25:42.764Z,73.20
2022-12-18T10:28:16.033Z,73.30
2022-12-18T10:30:45.613Z,73.40
2022-12-18T10:33:22.932Z,74.30
2022-12-18T10:35:53.634Z,73.60
2022-12-18T10:38:25.812Z,73.50
2022-12-18T10:41:00.874Z,73.70
2022-12-18T10:43:32.743Z,74.00
2022-12-18T10:46:03.657Z,74.30
2022-12-18T10:48:35.509Z,74.40
2022-12-18T10:51:13.662Z,74.40
2022-12-18T10:53:45.085Z,74.80
2022-12-18T10:56:14.286Z,75.00
2022-12-18T10:58:43.268Z,75.30
2022-12-18T11:01:22.914Z,75.60
2022-12-18T11:03:57.576Z,75.90
2022-12-18T11:06:29.792Z,76.20
2022-12-18T11:09:08.049Z,76.90
2022-12-18T11:11:41.492Z,77.40
2022-12-18T11:14:23.354Z,77.90
2022-12-18T11:19:44.133Z,78.20
2022-12-18T11:22:30.771Z,78.40
2022-12-18T11:25:32.997Z,79.80
2022-12-18T11:28:08.597Z,79.70
2022-12-18T11:30:39.089Z,79.90
2022-12-18T11:33:24.441Z,79.60
2022-12-18T11:36:00.669Z,79.50
2022-12-18T11:38:34.925Z,79.50
2022-12-18T11:41:09.359Z,79.50
2022-12-18T11:43:50.764Z,79.80
2022-12-18T11:46:28.868Z,79.70
2022-12-18T11:49:13.584Z,79.60
2022-12-18T11:51:50.739Z,79.70
2022-12-18T11:54:20.465Z,79.50
2022-12-18T11:56:56.120Z,79.70
2022-12-18T11:59:52.981Z,79.90
2022-12-18T12:02:51.920Z,80.30
2022-12-18T12:05:48.366Z,80.50
2022-12-18T12:08:31.528Z,80.70
2022-12-18T12:11:06.691Z,80.90
2022-12-18T12:13:56.161Z,81.00
2022-12-18T12:16:32.181Z,81.20
2022-12-18T12:19:32.881Z,81.40
2022-12-18T12:22:07.273Z,81.50
2022-12-18T12:24:57.581Z,81.60
2022-12-18T12:27:34.869Z,81.80
2022-12-18T12:30:08.223Z,81.90
2022-12-18T12:33:04.046Z,82.90
2022-12-18T12:35:56.433Z,82.20
2022-12-18T12:38:28.034Z,82.90
2022-12-18T12:41:36.716Z,83.30
2022-12-18T12:44:10.393Z,83.50
2022-12-18T12:46:43.707Z,83.90
2022-12-18T12:49:18.348Z,84.00
2022-12-18T12:52:01.146Z,84.60
2022-12-18T12:54:34.029Z,84.40
2022-12-18T12:57:25.770Z,84.10
2022-12-18T13:00:07.176Z,84.70
2022-12-18T13:02:59.932Z,85.10
2022-12-18T13:05:53.100Z,85.60
2022-12-18T13:08:35.309Z,85.50
2022-12-18T13:11:24.604Z,86.00
2022-12-18T13:13:58.419Z,85.60
2022-12-18T13:16:30.484Z,86.10
2022-12-18T13:19:01.177Z,86.50
2022-12-18T13:21:32.600Z,87.40
2022-12-18T13:24:25.367Z,86.70
2022-12-18T13:26:54.453Z,87.20
2022-12-18T13:29:45.305Z,86.50
2022-12-18T13:32:25.195Z,87.60
2022-12-18T13:35:30.589Z,87.80
2022-12-18T13:37:59.985Z,87.90
2022-12-18T13:40:48.881Z,87.40
2022-12-18T13:43:45.484Z,88.20
2022-12-18T13:46:45.406Z,88.70
2022-12-18T13:49:16.294Z,88.60
2022-12-18T13:51:53.541Z,88.80
2022-12-18T13:54:43.488Z,89.50
2022-12-18T13:57:31.655Z,90.10
2022-12-18T14:00:01.874Z,89.60
2022-12-18T14:02:31.400Z,89.00
2022-12-18T14:05:00.265Z,89.00
2022-12-18T14:07:34.899Z,89.40
2022-12-18T14:10:42.142Z,90.10
2022-12-18T14:13:11.034Z,90.00
2022-12-18T14:15:47.295Z,89.70
2022-12-18T14:19:00.937Z,90.10
2022-12-18T14:21:37.536Z,90.10
2022-12-18T14:24:19.913Z,90.00
2022-12-18T14:26:51.434Z,90.40
2022-12-18T14:29:26.579Z,90.20
2022-12-18T14:32:19.143Z,90.50
2022-12-18T14:34:50.180Z,90.90
2022-12-18T14:37:23.308Z,90.80
2022-12-18T14:39:56.843Z,90.70
2022-12-18T14:42:27.634Z,90.30
2022-12-18T14:45:41.447Z,90.40
2022-12-18T14:48:23.799Z,91.10
2022-12-18T14:51:09.876Z,91.10
2022-12-18T14:53:46.384Z,91.10
2022-12-18T14:56:22.454Z,91.00
2022-12-18T14:58:57.378Z,90.60
2022-12-18T15:01:28.691Z,90.30
2022-12-18T15:03:59.341Z,90.30
2022-12-18T15:06:34.859Z,90.30
2022-12-18T15:09:08.131Z,90.30
2022-12-18T15:11:47.686Z,90.30
2022-12-18T15:14:38.237Z,90.50
2022-12-18T15:17:18.114Z,90.60
2022-12-18T15:19:48.406Z,90.70
2022-12-18T15:22:32.355Z,90.70
2022-12-18T15:25:02.123Z,90.60
2022-12-18T15:27:40.765Z,90.50
2022-12-18T15:30:12.342Z,90.40
2022-12-18T15:32:42.584Z,90.30
2022-12-18T15:35:13.634Z,90.20
2022-12-18T15:37:43.335Z,90.10
2022-12-18T15:40:18.061Z,90.20
2022-12-18T15:43:09.454Z,90.10
2022-12-18T15:45:38.373Z,90.20
2022-12-18T15:48:22.845Z,90.20
2022-12-18T15:50:55.045Z,90.10
2022-12-18T15:53:24.212Z,90.20
2022-12-18T15:56:12.753Z,90.20
2022-12-18T15:58:41.796Z,90.20
2022-12-18T16:01:12.529Z,90.10
2022-12-18T16:03:41.572Z,90.20
2022-12-18T16:06:12.963Z,90.30
2022-12-18T16:08:41.921Z,90.40
2022-12-18T16:11:44.142Z,90.30
2022-12-18T16:14:23.376Z,90.30
2022-12-18T16:16:56.440Z,90.20
2022-12-18T16:19:25.731Z,90.10
2022-12-18T16:21:57.627Z,89.90
2022-12-18T16:24:30.505Z,90.00
2022-12-18T16:27:02.432Z,90.00
2022-12-18T16:29:32.263Z,90.00
2022-12-18T16:32:02.720Z,90.00
2022-12-18T16:34:35.670Z,90.00
2022-12-18T16:37:08.630Z,90.10
2022-12-18T16:39:38.490Z,90.10
2022-12-18T16:42:18.631Z,90.10
2022-12-18T16:44:49.479Z,90.20
2022-12-18T16:47:19.253Z,90.10
2022-12-18T16:49:50.339Z,90.20
2022-12-18T16:52:19.581Z,90.30
2022-12-18T16:54:48.499Z,90.40
2022-12-18T16:57:20.020Z,90.50
2022-12-18T17:03:31.499Z,91.10
2022-12-18T17:06:05.678Z,90.70
2022-12-18T17:08:34.606Z,90.80
2022-12-18T17:11:09.388Z,90.80
2022-12-18T17:13:38.387Z,90.90
2022-12-18T17:16:09.114Z,90.80
2022-12-18T17:18:38.138Z,90.60
2022-12-18T17:21:10.707Z,90.40
2022-12-18T17:23:39.971Z,90.40
2022-12-18T17:26:11.437Z,90.50
2022-12-18T17:28:41.728Z,90.40
2022-12-18T17:31:18.228Z,90.40
2022-12-18T17:33:47.419Z,90.50
2022-12-18T17:36:16.923Z,90.60
2022-12-18T17:38:52.001Z,90.40
2022-12-18T17:41:21.086Z,90.60
2022-12-18T17:43:59.615Z,90.60
2022-12-18T17:46:30.083Z,90.70
2022-12-18T17:49:00.392Z,90.80
2022-12-18T17:51:29.718Z,90.70
2022-12-18T17:53:58.682Z,90.90
2022-12-18T17:56:30.714Z,91.20
2022-12-18T17:58:59.844Z,91.00
2022-12-18T18:01:29.235Z,90.90
2022-12-18T18:03:58.873Z,91.00
2022-12-18T18:06:28.103Z,91.00
2022-12-18T18:08:57.382Z,91.00
2022-12-18T18:11:46.826Z,91.10
2022-12-18T18:14:20.027Z,91.40
2022-12-18T18:16:52.183Z,91.60
2022-12-18T18:19:24.231Z,91.30
2022-12-18T18:21:55.308Z,91.80
2022-12-18T18:24:25.580Z,92.00
2022-12-18T18:26:56.877Z,91.90
2022-12-18T18:29:27.872Z,91.70
2022-12-18T18:31:58.535Z,91.20
2022-12-18T18:34:30.543Z,91.30
2022-12-18T18:37:03.384Z,91.30
2022-12-18T18:39:32.558Z,91.20
2022-12-18T18:42:01.506Z,91.10
2022-12-18T18:44:30.545Z,91.20
2022-12-18T18:47:00.449Z,91.20
2022-12-18T18:49:31.105Z,91.10
2022-12-18T18:52:00.452Z,91.10
2022-12-18T18:54:30.622Z,91.20
2022-12-18T18:59:48.692Z,91.30
2022-12-18T19:02:18.914Z,91.40
2022-12-18T19:04:47.892Z,91.40
2022-12-18T19:07:24.063Z,91.60
2022-12-18T19:10:04.142Z,91.30
2022-12-18T19:12:54.977Z,91.30
2022-12-18T19:15:23.915Z,91.60
2022-12-18T19:17:52.809Z,91.40
2022-12-18T19:20:21.661Z,91.40
2022-12-18T19:22:55.674Z,91.30
2022-12-18T19:25:40.516Z,91.40
2022-12-18T19:28:17.367Z,91.60
2022-12-18T19:30:55.383Z,91.40
2022-12-18T19:33:45.200Z,91.50
2022-12-18T19:36:31.554Z,91.40
2022-12-18T19:39:02.576Z,91.40
2022-12-18T19:41:33.852Z,91.30
2022-12-18T19:44:07.827Z,91.40
2022-12-18T19:46:40.652Z,91.50
2022-12-18T19:49:17.273Z,91.50
2022-12-18T19:51:47.354Z,91.30
2022-12-18T19:54:19.236Z,91.50
2022-12-18T19:56:48.827Z,91.40
2022-12-18T19:59:17.855Z,91.30
2022-12-18T20:01:46.786Z,91.30
2022-12-18T20:04:16.036Z,91.60
2022-12-18T20:06:52.100Z,91.40
2022-12-18T20:09:21.793Z,91.40
2022-12-18T20:11:51.552Z,91.40
2022-12-18T20:14:23.444Z,91.30
2022-12-18T20:16:53.656Z,91.30
2022-12-18T20:19:23.608Z,91.60
2022-12-18T20:21:53.163Z,91.40
2022-12-18T20:24:21.950Z,91.40
2022-12-18T20:26:50.854Z,91.60
2022-12-18T20:29:19.849Z,91.40
2022-12-18T20:31:48.695Z,91.70
2022-12-18T20:34:17.558Z,91.50
2022-12-18T20:36:47.065Z,91.40
2022-12-18T20:39:17.443Z,91.40
2022-12-18T20:41:47.080Z,91.50
2022-12-18T20:44:22.616Z,91.40
2022-12-18T20:46:56.034Z,91.40
2022-12-18T20:49:26.662Z,91.40
2022-12-18T20:51:57.636Z,91.60
2022-12-18T20:54:28.646Z,91.70
2022-12-18T20:56:58.348Z,91.80
2022-12-18T20:59:27.760Z,91.80
2022-12-18T21:01:57.300Z,92.40
2022-12-18T21:04:27.453Z,92.30
2022-12-18T21:07:02.316Z,92.50
2022-12-18T21:09:38.326Z,92.70
2022-12-18T21:12:35.008Z,92.60
2022-12-18T21:15:12.108Z,92.50
2022-12-18T21:17:44.580Z,92.60
2022-12-18T21:20:18.062Z,92.90
2022-12-18T21:22:50.260Z,92.50
2022-12-18T21:25:19.232Z,92.40
2022-12-18T21:27:48.077Z,92.50
2022-12-18T21:30:17.780Z,92.50
2022-12-18T21:32:46.591Z,92.50
2022-12-18T21:35:15.378Z,92.40
2022-12-18T21:37:46.253Z,92.30
2022-12-18T21:40:15.282Z,92.20
2022-12-18T21:43:03.868Z,92.30
2022-12-18T21:45:32.640Z,92.30
2022-12-18T21:48:01.497Z,92.00
2022-12-18T21:50:30.692Z,92.10
2022-12-18T21:52:59.522Z,92.10
2022-12-18T21:55:28.339Z,92.10
2022-12-18T21:57:57.202Z,92.00
2022-12-18T22:00:29.058Z,91.90
2022-12-18T22:03:17.790Z,92.20
2022-12-18T22:05:49.369Z,92.30
2022-12-18T22:08:32.325Z,92.10
2022-12-18T22:11:01.201Z,92.10
2022-12-18T22:13:30.378Z,92.30
2022-12-18T22:15:59.322Z,92.20
2022-12-18T22:18:28.487Z,92.20
2022-12-18T22:21:29.048Z,92.00
2022-12-18T22:24:02.006Z,92.20
2022-12-18T22:26:37.883Z,92.20
2022-12-18T22:29:34.052Z,92.30
2022-12-18T22:32:04.846Z,92.40
2022-12-18T22:34:36.607Z,92.20
2022-12-18T22:37:05.883Z,92.60
2022-12-18T22:39:34.932Z,92.20
2022-12-18T22:42:04.197Z,92.40
2022-12-18T22:44:32.947Z,92.20
2022-12-18T22:47:06.174Z,92.10
2022-12-18T22:49:36.818Z,92.00
2022-12-18T22:52:07.703Z,92.00
2022-12-18T22:54:37.206Z,92.00
2022-12-18T22:57:06.013Z,91.90
2022-12-18T22:59:34.845Z,91.90
2022-12-18T23:02:03.664Z,91.90
2022-12-18T23:04:36.444Z,91.80
2022-12-18T23:07:07.279Z,91.80
2022-12-18T23:09:36.602Z,91.70
2022-12-18T23:12:06.028Z,91.80
2022-12-18T23:14:34.844Z,92.10
2022-12-18T23:17:03.656Z,91.80
2022-12-18T23:19:32.436Z,92.00
2022-12-18T23:22:06.118Z,91.90
2022-12-18T23:24:38.867Z,92.30
2022-12-18T23:27:11.548Z,92.20
2022-12-18T23:29:41.041Z,92.40
2022-12-18T23:32:09.847Z,92.00
2022-12-18T23:34:38.663Z,92.40
2022-12-18T23:37:07.449Z,92.40
2022-12-18T23:39:36.234Z,92.20
2022-12-18T23:42:05.079Z,92.40
2022-12-18T23:44:33.872Z,92.40
2022-12-18T23:47:02.781Z,92.20
2022-12-18T23:49:31.809Z,92.00
2022-12-18T23:52:00.782Z,91.90
2022-12-18T23:54:33.499Z,91.90
2022-12-18T23:57:02.805Z,91.70
2022-12-18T23:59:31.588Z,91.70
